KMWM/MWM METAR and TAF weather

Enter ICAO airport designator
Station Type Date Time Source
KMWM METAR 2019/09/12 05:18 UTC NOAA

KMWM 120518Z AUTO 33016KT 2SM +TSRA OVC002 17/16 A2997 RMK AO2 VIS 1V5 LTG DSNT ALQDS P0045


Station Type Date Time Source
KMWM Decoded METAR 2019/09/12 05:18 UTC NOAA

Windom, Windom Municipal Airport, MN, United States (KMWM) 43-54-48N 095-06-34W
Sep 12, 2019 - 01:18 AM EDT / 2019.09.12 0518 UTC
Wind: from the NNW (330 degrees) at 18 MPH (16 KT):0
Visibility: 2 mile(s):0
Sky conditions: overcast
Weather: heavy rain with thunder; Lightning observed
Precipitation last hour: 0.45 inches
Temperature: 62 F (17 C)
Dew Point: 60 F (16 C)
Relative Humidity: 93%
Pressure (altimeter): 29.97 in. Hg (1014 hPa)
ob: KMWM 120518Z AUTO 33016KT 2SM +TSRA OVC002 17/16 A2997 RMK AO2 VIS 1V5 LTG DSNT ALQDS P0045
cycle: 5

Station Type Date Time Source
KMWM TAF UTC NOAA

Error!

Example: see airport list